Time;durP1;ratioP1;P1;durP2;ratioP2;P2;SDS_P1;SDS_P2;PMS_P1;PMS_P2;Temp;Humidity;BMP_temperature;BMP_pressure;BME280_temperature;BME280_humidity;BME280_pressure;Samples;Min_cycle;Max_cycle;Signal;HPM_P1;HPM_P2
2021/05/06 00:01:54;;;;;;;10.93;7.37;;;6.70;99.90;;;;;;4919137;29;20482;-69
2021/05/06 00:31:33;;;;;;;9.27;7.23;;;7.20;99.90;;;;;;4927898;29;20447;-69
2021/05/06 00:33:54;;;;;;;9.47;7.53;;;7.10;99.90;;;;;;4917674;29;20975;-70
2021/05/06 00:36:19;;;;;;;8.07;6.83;;;6.90;99.90;;;;;;4917619;29;20538;-69
2021/05/06 00:38:51;;;;;;;10.23;7.33;;;6.80;99.90;;;;;;4917533;29;20175;-70
2021/05/06 00:46:44;;;;;;;10.13;8.43;;;7.00;99.90;;;;;;4917861;29;20415;-69
2021/05/06 00:57:34;;;;;;;8.23;7.53;;;7.20;99.90;;;;;;4917726;29;20415;-70
2021/05/06 01:02:45;;;;;;;8.70;8.00;;;7.20;99.90;;;;;;4917833;29;20855;-70
2021/05/06 01:05:18;;;;;;;9.47;8.67;;;7.20;99.90;;;;;;4917719;29;20438;-69
2021/05/06 01:07:56;;;;;;;9.13;8.23;;;7.00;99.90;;;;;;4916927;29;20845;-69
2021/05/06 01:12:53;;;;;;;9.20;8.43;;;7.00;99.90;;;;;;4917306;29;20404;-69
2021/05/06 01:15:19;;;;;;;10.03;9.10;;;6.90;99.90;;;;;;4917762;29;20482;-69
2021/05/06 01:17:45;;;;;;;10.67;9.77;;;6.90;99.90;;;;;;4916904;29;20185;-68
2021/05/06 01:20:11;;;;;;;9.90;8.90;;;6.80;99.90;;;;;;4916942;29;20191;-69
2021/05/06 01:22:37;;;;;;;9.70;8.43;;;6.80;99.90;;;;;;4916808;29;20459;-69
2021/05/06 01:25:04;;;;;;;9.57;8.60;;;6.80;99.90;;;;;;4917866;29;20442;-69
2021/05/06 01:27:48;;;;;;;10.63;8.93;;;6.90;99.90;;;;;;4916622;29;20747;-70
2021/05/06 01:32:52;;;;;;;9.70;8.80;;;6.90;99.90;;;;;;4930981;29;20426;-70
2021/05/06 01:35:31;;;;;;;9.33;8.30;;;7.00;99.90;;;;;;4941536;29;20434;-70
2021/05/06 01:38:31;;;;;;;8.90;8.07;;;7.00;99.90;;;;;;4934775;28;20512;-70
2021/05/06 01:41:18;;;;;;;8.80;8.00;;;7.00;99.90;;;;;;4936356;29;20477;-69
2021/05/06 01:46:32;;;;;;;12.00;8.93;;;7.00;99.90;;;;;;4936185;29;20430;-70
2021/05/06 02:00:00;;;;;;;8.17;7.33;;;7.10;99.90;;;;;;4920396;29;20461;-69
2021/05/06 02:02:25;;;;;;;9.37;7.23;;;7.20;99.90;;;;;;4920170;29;20860;-71
2021/05/06 02:04:51;;;;;;;7.63;6.83;;;7.20;99.90;;;;;;4933710;29;20452;-69
2021/05/06 02:07:17;;;;;;;7.60;6.70;;;7.10;99.90;;;;;;4938713;28;20210;-69
2021/05/06 02:09:45;;;;;;;6.83;6.00;;;7.10;99.90;;;;;;4938641;29;20274;-69
2021/05/06 02:12:11;;;;;;;7.30;6.60;;;7.10;99.90;;;;;;4938768;29;20418;-69
2021/05/06 02:14:37;;;;;;;7.33;6.67;;;7.10;99.90;;;;;;4936787;29;20783;-69
2021/05/06 02:17:03;;;;;;;6.83;6.10;;;7.10;99.90;;;;;;4938545;29;20439;-69
2021/05/06 02:19:32;;;;;;;7.23;6.60;;;7.10;99.90;;;;;;4938697;29;20170;-69
2021/05/06 02:21:58;;;;;;;8.13;5.87;;;7.00;99.90;;;;;;4938764;28;20226;-69
2021/05/06 02:24:24;;;;;;;8.20;6.57;;;7.00;99.90;;;;;;4937301;29;20513;-69
2021/05/06 02:26:49;;;;;;;6.80;6.10;;;7.10;99.90;;;;;;4938567;29;20448;-70
2021/05/06 02:29:15;;;;;;;10.23;6.60;;;7.00;99.90;;;;;;4939011;29;20175;-70
2021/05/06 02:31:40;;;;;;;6.73;5.37;;;7.00;99.90;;;;;;4938469;29;20185;-69
2021/05/06 02:34:06;;;;;;;7.67;6.83;;;7.00;99.90;;;;;;4938056;29;20171;-69
2021/05/06 02:36:32;;;;;;;6.87;6.10;;;7.10;99.90;;;;;;4936790;29;20217;-69
2021/05/06 02:38:58;;;;;;;7.27;6.03;;;7.10;99.90;;;;;;4937300;28;20213;-69
2021/05/06 02:41:23;;;;;;;6.33;5.60;;;7.10;99.90;;;;;;4938635;29;20206;-69
2021/05/06 02:43:49;;;;;;;6.47;5.87;;;7.10;99.90;;;;;;4938062;29;20767;-69
2021/05/06 02:46:14;;;;;;;8.00;5.73;;;7.00;99.90;;;;;;4936301;29;20261;-70
2021/05/06 02:48:40;;;;;;;7.17;5.73;;;7.10;99.90;;;;;;4952963;29;20627;-69
2021/05/06 02:51:07;;;;;;;6.73;6.13;;;7.10;99.90;;;;;;4938564;29;20163;-70
2021/05/06 02:53:37;;;;;;;6.47;5.83;;;7.10;99.90;;;;;;4937828;29;20199;-70
2021/05/06 02:58:56;;;;;;;6.30;5.70;;;7.00;99.90;;;;;;4929745;29;20975;-69
2021/05/06 03:04:08;;;;;;;6.70;6.00;;;7.10;99.90;;;;;;4937984;29;20394;-70
2021/05/06 03:06:40;;;;;;;8.80;6.57;;;7.00;99.90;;;;;;4938203;29;20506;-69
2021/05/06 03:14:49;;;;;;;6.03;5.40;;;6.90;99.90;;;;;;4918609;29;20431;-69
2021/05/06 03:22:47;;;;;;;6.73;4.90;;;6.80;99.90;;;;;;4939535;28;20514;-69
2021/05/06 03:25:16;;;;;;;6.03;5.10;;;6.80;99.90;;;;;;4937511;29;20469;-69
2021/05/06 03:27:48;;;;;;;7.00;4.93;;;6.80;99.90;;;;;;4937822;29;20468;-69
2021/05/06 04:18:39;;;;;;;5.10;3.80;;;6.80;99.90;;;;;;4935770;29;20942;-70
2021/05/06 04:35:37;;;;;;;8.23;4.43;;;6.90;99.90;;;;;;4945997;28;20594;-69
2021/05/06 04:37:46;;;;;;;4.30;3.33;;;6.90;99.90;;;;;;4932938;29;20840;-70
2021/05/06 04:46:08;;;;;;;5.60;4.47;;;6.80;99.90;;;;;;4936389;29;21065;-70
2021/05/06 05:06:56;;;;;;;6.77;4.20;;;7.10;99.90;;;;;;4936524;29;20474;-69
2021/05/06 05:11:54;;;;;;;6.17;4.00;;;7.20;99.90;;;;;;4917593;29;20411;-69
2021/05/06 05:27:58;;;;;;;5.30;4.10;;;7.30;99.90;;;;;;4897429;29;20419;-70
2021/05/06 05:30:26;;;;;;;5.70;4.60;;;7.30;99.90;;;;;;4899488;29;20866;-69
2021/05/06 05:32:52;;;;;;;6.13;4.60;;;7.30;99.90;;;;;;4899608;29;20419;-70
2021/05/06 05:35:37;;;;;;;9.00;4.10;;;7.30;99.90;;;;;;4911813;29;20861;-70
2021/05/06 05:38:08;;;;;;;6.57;4.70;;;7.30;99.90;;;;;;4918027;29;20206;-70
2021/05/06 05:40:42;;;;;;;6.40;5.13;;;7.30;99.90;;;;;;4918237;29;20454;-70
2021/05/06 05:56:52;;;;;;;9.93;6.20;;;7.60;99.90;;;;;;4918461;29;20742;-68
2021/05/06 05:59:18;;;;;;;8.60;5.77;;;7.60;99.90;;;;;;4926362;29;20474;-69
2021/05/06 06:01:43;;;;;;;8.27;7.27;;;7.60;99.90;;;;;;4923531;29;20465;-70
2021/05/06 06:04:09;;;;;;;9.37;7.33;;;7.60;99.90;;;;;;4920039;29;20923;-70
2021/05/06 06:06:34;;;;;;;9.17;6.73;;;7.60;99.90;;;;;;4919772;29;20207;-70
2021/05/06 06:09:00;;;;;;;8.03;6.20;;;7.70;99.90;;;;;;4929434;29;20206;-70
2021/05/06 06:11:25;;;;;;;6.70;6.00;;;7.70;99.90;;;;;;4939194;29;20202;-70
2021/05/06 06:13:52;;;;;;;10.00;7.27;;;7.70;99.90;;;;;;4938654;29;20175;-70
2021/05/06 06:16:27;;;;;;;8.17;6.90;;;7.70;99.90;;;;;;4938747;29;20186;-70
2021/05/06 06:18:55;;;;;;;8.23;7.30;;;7.80;99.90;;;;;;4939180;29;20425;-69
2021/05/06 06:21:31;;;;;;;9.80;7.90;;;7.80;99.90;;;;;;4939559;29;20410;-70
2021/05/06 06:23:57;;;;;;;9.83;8.27;;;7.70;99.90;;;;;;4918988;29;20474;-69
2021/05/06 06:26:24;;;;;;;7.80;7.10;;;7.70;99.90;;;;;;4920424;29;20777;-69
2021/05/06 06:28:52;;;;;;;10.17;8.20;;;7.80;99.90;;;;;;4921604;29;20841;-70
2021/05/06 06:31:28;;;;;;;13.10;8.90;;;7.80;99.90;;;;;;4921864;29;20449;-69
2021/05/06 06:33:54;;;;;;;9.70;8.67;;;7.80;99.90;;;;;;4923651;29;20398;-70
2021/05/06 06:36:21;;;;;;;10.50;9.40;;;7.80;99.90;;;;;;4929236;29;20427;-70
2021/05/06 06:38:47;;;;;;;11.37;10.20;;;7.80;99.90;;;;;;4920468;29;20418;-70
2021/05/06 06:41:13;;;;;;;11.33;10.23;;;7.80;99.90;;;;;;4919836;29;20466;-70
2021/05/06 06:43:44;;;;;;;11.37;9.80;;;7.70;99.90;;;;;;4920123;29;20419;-70
2021/05/06 06:46:10;;;;;;;13.17;11.80;;;7.70;99.90;;;;;;4919951;29;20447;-69
2021/05/06 06:48:35;;;;;;;12.93;10.93;;;7.70;99.90;;;;;;4937595;29;20460;-69
2021/05/06 06:51:01;;;;;;;10.37;9.27;;;7.80;99.90;;;;;;4937115;29;20179;-70
2021/05/06 06:53:29;;;;;;;12.90;10.40;;;7.80;99.90;;;;;;4938185;29;20194;-70
2021/05/06 06:55:55;;;;;;;11.47;9.93;;;7.90;99.90;;;;;;4939508;29;20796;-70
2021/05/06 06:58:20;;;;;;;11.20;9.90;;;7.80;99.90;;;;;;4938133;29;20425;-71
2021/05/06 07:00:46;;;;;;;11.70;10.20;;;7.90;99.90;;;;;;4939400;29;20511;-70
2021/05/06 07:03:13;;;;;;;12.90;10.30;;;7.80;99.90;;;;;;4940020;29;20201;-70
2021/05/06 07:05:40;;;;;;;11.20;10.07;;;7.80;99.90;;;;;;4941862;29;20433;-70
2021/05/06 07:08:31;;;;;;;11.97;10.13;;;7.80;99.90;;;;;;4946196;29;20963;-70
2021/05/06 07:10:59;;;;;;;10.87;9.60;;;7.80;99.90;;;;;;4939084;29;20466;-69
2021/05/06 07:13:25;;;;;;;15.00;10.00;;;7.80;99.90;;;;;;4939272;29;20801;-69
2021/05/06 07:15:57;;;;;;;13.17;9.57;;;7.90;99.90;;;;;;4938415;29;20824;-70
2021/05/06 07:18:22;;;;;;;11.07;9.97;;;8.10;99.90;;;;;;4939729;29;20745;-69
2021/05/06 07:20:49;;;;;;;10.17;9.17;;;8.00;99.90;;;;;;4939212;29;20461;-69
2021/05/06 07:23:17;;;;;;;10.87;9.57;;;8.10;99.90;;;;;;4938337;29;20202;-69
2021/05/06 07:25:48;;;;;;;10.33;9.33;;;8.10;99.90;;;;;;4938309;29;20994;-69
2021/05/06 07:28:16;;;;;;;12.60;10.10;;;8.10;99.90;;;;;;4939135;29;20405;-69
2021/05/06 07:30:43;;;;;;;11.17;9.70;;;8.20;99.90;;;;;;4937972;29;20438;-69
2021/05/06 07:33:10;;;;;;;9.57;8.40;;;8.30;99.90;;;;;;4937879;29;20414;-69
2021/05/06 07:35:36;;;;;;;10.67;9.70;;;8.50;99.90;;;;;;4938351;29;20799;-70
2021/05/06 07:38:02;;;;;;;10.70;9.03;;;8.60;99.90;;;;;;4938091;29;20417;-69
2021/05/06 07:40:28;;;;;;;9.53;8.53;;;8.60;99.90;;;;;;4946123;29;20479;-69
2021/05/06 07:42:53;;;;;;;14.85;10.48;;;8.80;99.90;;;;;;4952346;29;20441;-69
2021/05/06 07:45:19;;;;;;;15.47;9.57;;;8.90;99.90;;;;;;4944761;29;20198;-69
2021/05/06 07:47:45;;;;;;;12.23;9.00;;;9.00;99.90;;;;;;4937457;29;20177;-70
2021/05/06 07:50:11;;;;;;;11.07;9.93;;;9.10;99.90;;;;;;4937634;29;20481;-69
2021/05/06 07:52:38;;;;;;;10.60;8.33;;;9.00;99.90;;;;;;4936062;29;20583;-69
2021/05/06 07:55:04;;;;;;;9.67;8.27;;;9.10;99.90;;;;;;4937934;29;20951;-69
2021/05/06 07:57:29;;;;;;;9.37;7.87;;;9.10;99.90;;;;;;4937874;29;20418;-70
2021/05/06 07:59:55;;;;;;;8.73;7.93;;;8.90;99.90;;;;;;4936976;29;20445;-70
2021/05/06 08:02:21;;;;;;;7.30;6.70;;;8.80;99.90;;;;;;4936948;29;20295;-70
2021/05/06 08:04:47;;;;;;;21.47;8.03;;;8.80;99.90;;;;;;4937359;29;20191;-70
2021/05/06 08:07:12;;;;;;;8.10;7.10;;;8.80;99.90;;;;;;4937213;29;20773;-70
2021/05/06 08:09:38;;;;;;;11.90;8.00;;;8.90;99.90;;;;;;4923690;29;20190;-70
2021/05/06 08:12:05;;;;;;;8.40;7.43;;;8.90;99.90;;;;;;4919357;29;20203;-70
2021/05/06 08:14:30;;;;;;;9.57;8.07;;;8.90;99.90;;;;;;4920050;29;20246;-70
2021/05/06 08:16:57;;;;;;;8.47;7.57;;;9.00;99.90;;;;;;4940035;29;20434;-70
2021/05/06 08:19:23;;;;;;;7.90;6.60;;;9.10;99.90;;;;;;4940524;29;20171;-70
2021/05/06 08:21:48;;;;;;;7.27;6.50;;;9.10;99.90;;;;;;4945802;29;20506;-70
2021/05/06 08:24:14;;;;;;;6.77;6.17;;;9.30;99.90;;;;;;4932482;29;20446;-70
2021/05/06 08:26:40;;;;;;;6.50;5.90;;;9.40;99.70;;;;;;4917895;29;20664;-70
2021/05/06 08:29:06;;;;;;;5.83;5.33;;;9.50;99.10;;;;;;4917556;29;20407;-70
2021/05/06 08:31:32;;;;;;;8.10;6.20;;;9.60;98.60;;;;;;4917480;29;20509;-70
2021/05/06 08:33:58;;;;;;;6.77;5.47;;;9.50;98.70;;;;;;4917349;29;20651;-69
2021/05/06 08:36:24;;;;;;;6.70;6.00;;;9.40;98.60;;;;;;4917788;29;20174;-70
2021/05/06 08:38:50;;;;;;;7.73;6.57;;;9.50;98.50;;;;;;4917595;29;20416;-70
2021/05/06 08:41:16;;;;;;;7.33;6.43;;;9.50;98.60;;;;;;4917119;29;20415;-70
2021/05/06 08:43:46;;;;;;;10.07;9.07;;;9.60;98.80;;;;;;4917528;29;20774;-70
2021/05/06 08:46:12;;;;;;;11.10;7.80;;;9.50;99.80;;;;;;4932185;29;20670;-70
2021/05/06 08:48:37;;;;;;;10.50;8.70;;;9.30;99.90;;;;;;4917594;29;20599;-70
2021/05/06 08:51:03;;;;;;;12.40;9.70;;;9.40;99.90;;;;;;4917464;29;20474;-69
2021/05/06 08:53:29;;;;;;;9.80;8.73;;;9.40;99.90;;;;;;4917467;29;20263;-70
2021/05/06 08:55:56;;;;;;;10.40;7.60;;;9.40;99.90;;;;;;4917208;29;20519;-70
2021/05/06 08:58:22;;;;;;;8.03;7.23;;;9.40;99.90;;;;;;4917075;29;20171;-71
2021/05/06 09:00:48;;;;;;;6.30;5.70;;;9.50;99.90;;;;;;4917783;29;20426;-70
2021/05/06 09:03:14;;;;;;;7.30;6.27;;;9.60;99.90;;;;;;4919485;29;20967;-71
2021/05/06 09:06:18;;;;;;;7.93;7.13;;;9.60;99.50;;;;;;4920975;29;20847;-70
2021/05/06 09:08:51;;;;;;;7.70;6.70;;;9.90;99.20;;;;;;4928256;29;20418;-70
2021/05/06 09:11:35;;;;;;;7.90;7.10;;;10.10;97.80;;;;;;4940376;29;20408;-70
2021/05/06 09:14:05;;;;;;;6.20;5.60;;;10.30;97.60;;;;;;4939631;29;20771;-70
2021/05/06 09:16:35;;;;;;;6.63;6.10;;;10.30;97.00;;;;;;4939952;29;20515;-70
2021/05/06 09:19:06;;;;;;;6.27;5.67;;;10.30;96.70;;;;;;4940053;29;20469;-70
2021/05/06 09:21:34;;;;;;;7.00;6.30;;;10.50;96.10;;;;;;4940039;29;20882;-70
2021/05/06 09:24:26;;;;;;;6.27;5.70;;;10.70;95.80;;;;;;4939908;29;20408;-70
2021/05/06 09:26:59;;;;;;;6.90;5.40;;;10.90;95.40;;;;;;4940598;29;20412;-70
2021/05/06 09:29:36;;;;;;;6.97;5.57;;;10.90;94.10;;;;;;4940132;29;20410;-70
2021/05/06 09:32:19;;;;;;;5.30;4.83;;;10.80;94.00;;;;;;4940252;29;20454;-70
2021/05/06 09:34:46;;;;;;;5.70;5.20;;;10.80;93.90;;;;;;4940451;29;20787;-70
2021/05/06 09:37:22;;;;;;;6.80;6.20;;;10.70;93.70;;;;;;4940115;29;20414;-70
2021/05/06 09:40:00;;;;;;;8.47;6.23;;;10.70;93.90;;;;;;4939996;29;20412;-70
2021/05/06 09:42:40;;;;;;;6.97;6.37;;;10.80;94.10;;;;;;4940106;29;20449;-69
2021/05/06 09:45:07;;;;;;;6.37;5.87;;;10.90;94.40;;;;;;4940145;29;20438;-70
2021/05/06 09:47:33;;;;;;;14.63;6.67;;;10.90;94.00;;;;;;4939466;29;20429;-70
2021/05/06 09:49:58;;;;;;;5.63;5.23;;;11.00;93.90;;;;;;4939127;29;20414;-71
2021/05/06 09:52:24;;;;;;;5.97;5.47;;;11.10;93.80;;;;;;4939927;29;20180;-71
2021/05/06 09:54:54;;;;;;;5.90;5.43;;;11.30;93.80;;;;;;4939955;29;20688;-70
2021/05/06 09:57:28;;;;;;;6.67;5.67;;;11.60;93.50;;;;;;4940560;29;20273;-70
2021/05/06 10:00:14;;;;;;;5.20;4.80;;;11.70;92.90;;;;;;4942375;28;20780;-70
2021/05/06 10:02:40;;;;;;;4.70;4.30;;;11.90;92.00;;;;;;4939482;29;20453;-70
2021/05/06 10:05:08;;;;;;;5.60;5.07;;;12.00;92.00;;;;;;4939564;29;20931;-71
2021/05/06 10:07:33;;;;;;;5.37;4.97;;;12.00;91.70;;;;;;4939138;29;20172;-70
2021/05/06 10:10:03;;;;;;;5.27;4.87;;;12.00;91.60;;;;;;4940625;29;20514;-70
2021/05/06 10:12:34;;;;;;;5.67;5.17;;;12.00;91.10;;;;;;4939403;29;20185;-69
2021/05/06 10:15:02;;;;;;;5.63;5.13;;;11.70;90.80;;;;;;4938186;29;20956;-70
2021/05/06 10:17:29;;;;;;;5.30;4.83;;;11.70;91.00;;;;;;4937776;29;20430;-70
2021/05/06 10:19:55;;;;;;;5.43;4.93;;;11.70;91.40;;;;;;4938449;29;20484;-70
2021/05/06 10:22:24;;;;;;;5.23;4.83;;;12.00;91.60;;;;;;4938511;29;20613;-70
2021/05/06 10:24:50;;;;;;;6.30;5.70;;;12.30;91.50;;;;;;4940744;29;20573;-70
2021/05/06 10:27:17;;;;;;;5.20;4.70;;;12.50;90.60;;;;;;4939159;29;20427;-69
2021/05/06 10:29:44;;;;;;;6.30;4.90;;;12.80;90.30;;;;;;4939035;29;20465;-71
2021/05/06 10:32:12;;;;;;;4.90;4.50;;;13.00;89.80;;;;;;4950654;29;20458;-71
2021/05/06 10:34:41;;;;;;;5.10;4.67;;;13.10;89.10;;;;;;4974725;29;20445;-70
2021/05/06 10:37:07;;;;;;;4.40;4.10;;;13.30;87.90;;;;;;4956654;29;20477;-71
2021/05/06 10:39:41;;;;;;;4.60;4.30;;;13.30;87.70;;;;;;4939945;29;20433;-71
2021/05/06 10:42:28;;;;;;;4.20;3.87;;;13.30;86.20;;;;;;4939779;29;20460;-71
2021/05/06 10:44:55;;;;;;;4.10;3.70;;;13.40;84.30;;;;;;4938546;29;20433;-71
2021/05/06 10:47:45;;;;;;;4.00;3.60;;;13.40;81.40;;;;;;4944115;29;20512;-71
2021/05/06 10:50:31;;;;;;;4.37;4.07;;;13.60;80.10;;;;;;4944521;29;20420;-70
2021/05/06 10:52:56;;;;;;;4.40;4.00;;;13.70;81.00;;;;;;4938710;29;20721;-70
2021/05/06 10:55:48;;;;;;;3.97;3.67;;;13.90;80.10;;;;;;4938325;29;20505;-70
2021/05/06 10:58:32;;;;;;;4.57;4.17;;;14.00;79.00;;;;;;4938959;29;20170;-69
2021/05/06 11:01:05;;;;;;;4.30;3.90;;;13.90;78.30;;;;;;4938763;29;20802;-70
2021/05/06 11:03:32;;;;;;;3.63;3.43;;;13.70;78.20;;;;;;4938461;29;20974;-72
2021/05/06 11:05:58;;;;;;;4.03;3.63;;;13.20;78.60;;;;;;4938186;29;20441;-71
2021/05/06 11:08:24;;;;;;;3.93;3.63;;;12.70;78.70;;;;;;4937916;29;20418;-71
2021/05/06 11:10:50;;;;;;;7.73;3.63;;;12.50;81.00;;;;;;4938524;29;20417;-70
2021/05/06 11:13:18;;;;;;;3.73;3.40;;;12.20;81.20;;;;;;4937877;29;20444;-70
2021/05/06 11:15:44;;;;;;;4.60;3.40;;;12.20;81.70;;;;;;4937721;29;20675;-70
2021/05/06 11:18:33;;;;;;;4.73;3.73;;;12.20;82.00;;;;;;4937832;29;20876;-70
2021/05/06 11:20:58;;;;;;;4.30;3.37;;;12.20;81.90;;;;;;4937216;29;20923;-71
2021/05/06 11:23:26;;;;;;;3.73;3.10;;;12.20;80.20;;;;;;4937542;29;20468;-71
2021/05/06 11:26:00;;;;;;;3.17;2.87;;;12.30;79.90;;;;;;4937385;29;20190;-69
2021/05/06 11:28:26;;;;;;;3.33;3.03;;;12.40;80.00;;;;;;4936742;29;20424;-70
2021/05/06 11:30:53;;;;;;;3.40;3.10;;;12.50;78.10;;;;;;4935885;29;20501;-70
2021/05/06 11:33:30;;;;;;;3.40;3.20;;;12.70;78.70;;;;;;4937459;29;20206;-70
2021/05/06 11:36:06;;;;;;;4.23;3.83;;;12.80;79.60;;;;;;4937629;29;20426;-70
2021/05/06 11:38:35;;;;;;;4.43;3.53;;;13.00;79.70;;;;;;4936003;29;20772;-70
2021/05/06 11:41:06;;;;;;;3.90;3.57;;;13.20;77.40;;;;;;4937364;29;20493;-69
2021/05/06 11:43:32;;;;;;;3.80;3.50;;;13.30;76.20;;;;;;4936961;29;20823;-69
2021/05/06 11:46:07;;;;;;;4.53;3.83;;;13.30;76.90;;;;;;4936562;29;20446;-70
2021/05/06 11:48:37;;;;;;;3.90;3.33;;;13.40;77.50;;;;;;4937560;29;20418;-70
2021/05/06 11:51:04;;;;;;;4.32;3.55;;;13.40;76.70;;;;;;4933206;29;20437;-69
2021/05/06 11:53:29;;;;;;;3.43;3.13;;;13.20;75.90;;;;;;4934765;29;20220;-70
2021/05/06 11:55:55;;;;;;;3.10;2.90;;;13.20;76.90;;;;;;4936733;29;20442;-70
2021/05/06 11:58:25;;;;;;;3.40;3.10;;;12.90;75.60;;;;;;4936912;29;20201;-70
2021/05/06 12:00:54;;;;;;;3.53;3.22;;;12.30;76.50;;;;;;4935553;29;20507;-70
2021/05/06 12:03:20;;;;;;;4.90;3.30;;;12.10;77.80;;;;;;4936512;29;20206;-70
2021/05/06 12:06:04;;;;;;;3.83;3.43;;;12.20;78.70;;;;;;4936623;29;20434;-70
2021/05/06 12:08:44;;;;;;;3.93;3.63;;;12.10;80.90;;;;;;4931237;29;20163;-70
2021/05/06 12:11:10;;;;;;;5.27;3.80;;;12.10;80.90;;;;;;4916256;29;20936;-71
2021/05/06 12:13:37;;;;;;;5.50;3.83;;;12.00;82.30;;;;;;4917462;29;20417;-70
2021/05/06 12:16:24;;;;;;;3.83;3.30;;;12.10;82.20;;;;;;4917607;29;20450;-70
2021/05/06 12:19:09;;;;;;;4.10;3.67;;;12.10;81.00;;;;;;4917754;29;20453;-70
2021/05/06 12:21:40;;;;;;;3.30;3.10;;;12.30;80.80;;;;;;4917310;29;20450;-70
2021/05/06 12:24:08;;;;;;;3.63;3.17;;;12.50;78.90;;;;;;4917350;29;20466;-70
2021/05/06 12:26:35;;;;;;;3.53;3.10;;;12.80;79.20;;;;;;4917698;29;20498;-70
2021/05/06 12:29:00;;;;;;;3.17;2.87;;;13.10;78.40;;;;;;4917372;29;20896;-70
2021/05/06 12:31:26;;;;;;;4.03;2.90;;;13.40;77.40;;;;;;4917420;29;20419;-70
2021/05/06 12:33:52;;;;;;;5.47;3.70;;;13.60;76.10;;;;;;4915839;29;20171;-69
2021/05/06 12:36:18;;;;;;;3.20;2.90;;;13.30;74.50;;;;;;4915757;29;20238;-70
2021/05/06 12:38:44;;;;;;;3.40;2.73;;;13.20;75.00;;;;;;4917683;29;20178;-71
2021/05/06 12:41:12;;;;;;;3.33;2.97;;;13.30;75.00;;;;;;4917504;29;20822;-70
2021/05/06 12:43:51;;;;;;;2.73;2.43;;;13.30;74.40;;;;;;4917299;29;20831;-70
2021/05/06 12:46:25;;;;;;;4.17;2.67;;;13.40;71.90;;;;;;4917506;29;20403;-71
2021/05/06 12:48:57;;;;;;;3.90;2.83;;;13.40;68.30;;;;;;4917596;29;20411;-70
2021/05/06 12:51:29;;;;;;;3.70;2.40;;;13.20;67.20;;;;;;4917515;29;20514;-69
2021/05/06 12:54:01;;;;;;;4.43;2.77;;;13.30;68.60;;;;;;4916036;29;20426;-69
2021/05/06 12:56:39;;;;;;;2.90;2.60;;;13.10;66.30;;;;;;4916458;29;20487;-70
2021/05/06 12:59:24;;;;;;;2.80;2.60;;;13.00;66.40;;;;;;4917651;29;20406;-70
2021/05/06 13:01:50;;;;;;;2.97;2.77;;;12.80;66.20;;;;;;4917946;29;20549;-71
2021/05/06 13:04:16;;;;;;;3.20;2.90;;;12.70;66.30;;;;;;4918166;29;20438;-70
2021/05/06 13:06:42;;;;;;;2.90;2.63;;;12.70;67.00;;;;;;4918633;29;20439;-70
2021/05/06 13:09:15;;;;;;;2.33;2.23;;;12.60;65.70;;;;;;4927974;29;20406;-69
2021/05/06 13:11:41;;;;;;;2.83;2.50;;;12.60;66.90;;;;;;4936185;29;20210;-70
2021/05/06 13:14:08;;;;;;;3.40;3.10;;;12.80;67.30;;;;;;4939684;29;20436;-69
2021/05/06 13:16:39;;;;;;;2.90;2.70;;;13.10;67.50;;;;;;4944033;29;20422;-70
2021/05/06 13:19:08;;;;;;;2.97;2.77;;;13.10;66.90;;;;;;4937783;29;20426;-70
2021/05/06 13:21:34;;;;;;;5.60;3.07;;;13.30;67.40;;;;;;4937008;29;20425;-70
2021/05/06 13:24:01;;;;;;;3.27;3.00;;;13.50;66.80;;;;;;4936451;29;20426;-70
2021/05/06 13:26:36;;;;;;;2.90;2.70;;;13.50;66.10;;;;;;4936724;29;20620;-70
2021/05/06 13:29:04;;;;;;;2.97;2.77;;;13.70;66.10;;;;;;4936281;29;20906;-70
2021/05/06 13:31:37;;;;;;;3.20;3.00;;;13.90;65.90;;;;;;4936240;29;20453;-70
2021/05/06 13:34:18;;;;;;;3.07;2.50;;;14.10;64.90;;;;;;4936068;29;20479;-70
2021/05/06 13:36:46;;;;;;;3.40;3.10;;;14.00;64.70;;;;;;4935368;29;20780;-70
2021/05/06 13:39:14;;;;;;;3.37;3.07;;;14.00;64.70;;;;;;4938416;29;20418;-70
2021/05/06 13:41:45;;;;;;;3.40;3.10;;;14.10;65.00;;;;;;4946124;29;20406;-70
2021/05/06 13:44:19;;;;;;;3.27;2.97;;;14.20;64.00;;;;;;4940580;29;20441;-70
2021/05/06 13:46:53;;;;;;;3.13;2.93;;;14.00;64.50;;;;;;4937225;29;20421;-69
2021/05/06 13:49:24;;;;;;;3.00;2.70;;;14.00;64.90;;;;;;4941449;29;20417;-69
2021/05/06 13:51:51;;;;;;;3.40;3.10;;;14.10;65.40;;;;;;4957950;29;20410;-70
2021/05/06 13:54:19;;;;;;;2.77;2.57;;;14.20;64.60;;;;;;4957908;29;20422;-70
2021/05/06 13:56:44;;;;;;;3.50;2.90;;;14.40;64.00;;;;;;4944720;28;20589;-70
2021/05/06 13:59:11;;;;;;;4.17;2.93;;;14.30;63.30;;;;;;4939463;29;20470;-70
2021/05/06 14:01:37;;;;;;;4.37;3.17;;;14.40;63.60;;;;;;4940117;29;20182;-70
2021/05/06 14:04:03;;;;;;;7.13;3.40;;;14.50;63.60;;;;;;4939942;29;20783;-67
2021/05/06 14:06:29;;;;;;;2.90;2.60;;;14.70;64.20;;;;;;4940245;29;20422;-69
2021/05/06 14:08:55;;;;;;;2.67;2.47;;;14.80;63.50;;;;;;4939786;29;20422;-70
2021/05/06 14:11:21;;;;;;;2.90;2.70;;;14.90;62.80;;;;;;4939939;29;20179;-70
2021/05/06 14:13:46;;;;;;;2.43;2.23;;;14.90;61.20;;;;;;4939286;29;20414;-70
2021/05/06 14:16:12;;;;;;;5.90;2.80;;;14.90;59.90;;;;;;4939317;29;20220;-70
2021/05/06 14:18:38;;;;;;;4.00;3.10;;;14.70;59.60;;;;;;4939392;29;20520;-71
2021/05/06 14:21:06;;;;;;;3.20;2.90;;;14.80;60.30;;;;;;4939461;29;20182;-69
2021/05/06 14:23:37;;;;;;;2.90;2.70;;;14.80;59.90;;;;;;4938829;29;20815;-69
2021/05/06 14:26:03;;;;;;;3.30;2.40;;;14.80;59.80;;;;;;4939160;29;20434;-69
2021/05/06 14:28:29;;;;;;;5.20;2.63;;;14.80;59.70;;;;;;4938874;29;20419;-70
2021/05/06 14:30:54;;;;;;;3.03;2.67;;;14.70;59.90;;;;;;4937570;29;20454;-69
2021/05/06 14:33:20;;;;;;;2.90;2.70;;;14.70;60.60;;;;;;4938115;29;20229;-69
2021/05/06 14:35:45;;;;;;;2.93;2.60;;;14.60;60.30;;;;;;4938635;29;20205;-69
2021/05/06 14:38:11;;;;;;;3.03;2.77;;;14.50;59.80;;;;;;4938710;29;20178;-69
2021/05/06 14:40:38;;;;;;;3.13;2.93;;;14.40;59.90;;;;;;4939064;29;20182;-69
2021/05/06 14:43:05;;;;;;;2.40;2.20;;;14.30;59.60;;;;;;4938251;29;20206;-69
2021/05/06 14:45:31;;;;;;;2.63;2.27;;;14.10;59.60;;;;;;4938125;29;20486;-69
2021/05/06 14:47:57;;;;;;;2.90;2.70;;;14.00;61.30;;;;;;4938249;29;20419;-69
2021/05/06 14:50:23;;;;;;;2.63;2.43;;;13.90;62.10;;;;;;4938546;29;20229;-70
2021/05/06 14:52:53;;;;;;;4.97;3.40;;;13.70;62.90;;;;;;4938573;29;20170;-69
2021/05/06 14:55:19;;;;;;;3.10;2.80;;;13.60;64.40;;;;;;4937745;29;20500;-69
2021/05/06 14:57:45;;;;;;;3.30;2.80;;;13.40;65.20;;;;;;4938287;29;20702;-69
2021/05/06 15:00:11;;;;;;;3.20;2.90;;;13.20;66.70;;;;;;4937699;29;20534;-70
2021/05/06 15:02:36;;;;;;;3.40;3.10;;;13.00;68.00;;;;;;4935581;29;20674;-70
2021/05/06 15:05:02;;;;;;;3.57;2.97;;;13.00;69.10;;;;;;4936868;29;20430;-69
2021/05/06 15:07:28;;;;;;;2.40;2.20;;;13.10;69.70;;;;;;4936500;29;20166;-70
2021/05/06 15:09:54;;;;;;;4.37;3.70;;;13.00;68.00;;;;;;4937949;29;20469;-70
2021/05/06 15:12:19;;;;;;;3.47;3.17;;;13.00;69.00;;;;;;4937661;29;20580;-69
2021/05/06 15:14:45;;;;;;;2.83;2.60;;;13.10;69.30;;;;;;4937976;29;20198;-68
2021/05/06 15:17:10;;;;;;;2.93;2.73;;;13.20;69.40;;;;;;4937592;29;20198;-67
2021/05/06 15:19:36;;;;;;;3.43;3.20;;;13.20;69.60;;;;;;4937307;29;20543;-68
2021/05/06 15:22:01;;;;;;;3.07;2.87;;;13.10;69.50;;;;;;4937703;29;20202;-68
2021/05/06 15:24:27;;;;;;;3.40;3.10;;;13.00;69.70;;;;;;4938018;29;20543;-68
2021/05/06 15:26:53;;;;;;;3.53;3.23;;;12.90;68.70;;;;;;4937876;29;20185;-69
2021/05/06 15:29:18;;;;;;;3.30;3.10;;;12.80;69.60;;;;;;4929565;29;20454;-69
2021/05/06 15:31:44;;;;;;;3.33;2.63;;;12.90;69.70;;;;;;4919731;29;20187;-68
2021/05/06 15:34:10;;;;;;;3.63;3.33;;;13.00;70.30;;;;;;4932790;29;20181;-69
2021/05/06 15:36:36;;;;;;;3.37;3.07;;;13.00;71.00;;;;;;4936861;29;20230;-68
2021/05/06 15:39:04;;;;;;;2.70;2.50;;;13.00;71.20;;;;;;4936105;28;20502;-69
2021/05/06 15:41:30;;;;;;;3.60;3.30;;;12.90;72.30;;;;;;4935547;29;20498;-68
2021/05/06 15:43:56;;;;;;;4.97;3.90;;;12.70;74.20;;;;;;4934811;29;20856;-68
2021/05/06 15:46:21;;;;;;;4.00;3.70;;;12.60;75.40;;;;;;4934466;29;20222;-68
2021/05/06 15:48:47;;;;;;;3.80;3.50;;;12.60;76.50;;;;;;4934992;29;20406;-68
2021/05/06 15:51:13;;;;;;;5.27;3.70;;;12.70;77.00;;;;;;4934600;29;20170;-67
2021/05/06 15:53:43;;;;;;;3.13;2.90;;;12.60;78.00;;;;;;4937551;29;20242;-69
2021/05/06 15:56:09;;;;;;;3.53;3.23;;;12.60;79.40;;;;;;4937864;29;20461;-69
2021/05/06 15:58:36;;;;;;;3.50;3.20;;;12.60;80.00;;;;;;4937492;29;20402;-68
2021/05/06 16:01:02;;;;;;;3.93;3.63;;;12.60;81.00;;;;;;4936351;29;20497;-69
2021/05/06 16:03:31;;;;;;;3.83;3.30;;;12.50;80.10;;;;;;4935823;29;20927;-69
2021/05/06 16:05:57;;;;;;;4.77;3.33;;;12.40;80.40;;;;;;4936133;28;20462;-69
2021/05/06 16:08:24;;;;;;;3.00;2.80;;;12.40;80.20;;;;;;4936121;29;20432;-68
2021/05/06 16:10:53;;;;;;;3.50;3.20;;;12.30;81.30;;;;;;4933167;29;20189;-69
2021/05/06 16:13:19;;;;;;;3.63;3.43;;;12.30;81.90;;;;;;4934534;29;20811;-69
2021/05/06 16:15:48;;;;;;;4.40;4.00;;;12.30;82.70;;;;;;4915450;29;20486;-68